createdAt,value
2018-11-06T00:01:40.009Z,95076.00
2018-11-06T00:04:11.040Z,95075.00
2018-11-06T00:06:42.310Z,95080.00
2018-11-06T00:09:13.468Z,95077.00
2018-11-06T00:11:44.687Z,95071.00
2018-11-06T00:14:15.689Z,95071.00
2018-11-06T00:16:46.229Z,95075.00
2018-11-06T00:19:18.367Z,95063.00
2018-11-06T00:21:49.313Z,95071.00
2018-11-06T00:24:21.120Z,95065.00
2018-11-06T00:26:51.976Z,95066.00
2018-11-06T00:29:22.794Z,95059.00
2018-11-06T00:31:53.904Z,95063.00
2018-11-06T00:34:24.614Z,95063.00
2018-11-06T00:37:16.110Z,94948.00
2018-11-06T00:39:57.619Z,95068.00
2018-11-06T00:42:33.959Z,95068.00
2018-11-06T00:45:12.761Z,95070.00
2018-11-06T00:47:50.415Z,95063.00
2018-11-06T00:50:23.109Z,95057.00
2018-11-06T00:53:06.027Z,95066.00
2018-11-06T00:55:40.272Z,95065.00
2018-11-06T00:58:13.544Z,95061.00
2018-11-06T01:00:48.548Z,95303.00
2018-11-06T01:03:20.140Z,95056.00
2018-11-06T01:05:51.902Z,95062.00
2018-11-06T01:08:22.758Z,95064.00
2018-11-06T01:10:53.993Z,95053.00
2018-11-06T01:13:24.630Z,95045.00
2018-11-06T01:15:55.530Z,95053.00
2018-11-06T01:18:26.005Z,95049.00
2018-11-06T01:20:56.766Z,95091.00
2018-11-06T01:23:28.198Z,95059.00
2018-11-06T01:25:59.950Z,95052.00
2018-11-06T01:28:31.695Z,95043.00
2018-11-06T01:31:13.717Z,95046.00
2018-11-06T01:33:45.874Z,95046.00
2018-11-06T01:36:16.403Z,95050.00
2018-11-06T01:38:52.892Z,95042.00
2018-11-06T01:41:23.530Z,95047.00
2018-11-06T01:43:54.625Z,95042.00
2018-11-06T01:46:25.233Z,95056.00
2018-11-06T01:48:55.736Z,95048.00
2018-11-06T01:51:26.262Z,95038.00
2018-11-06T01:53:56.707Z,95038.00
2018-11-06T01:56:29.994Z,95036.00
2018-11-06T01:59:01.356Z,95036.00
2018-11-06T02:01:31.849Z,95033.00
2018-11-06T02:04:03.718Z,95038.00
2018-11-06T02:06:34.244Z,95032.00
2018-11-06T02:09:07.198Z,95038.00
2018-11-06T02:11:37.812Z,95029.00
2018-11-06T02:14:08.405Z,95037.00
2018-11-06T02:16:39.064Z,95048.00
2018-11-06T02:19:09.827Z,95039.00
2018-11-06T02:21:40.666Z,95031.00
2018-11-06T02:24:12.386Z,95030.00
2018-11-06T02:26:43.067Z,95026.00
2018-11-06T02:29:22.170Z,95025.00
2018-11-06T02:32:00.102Z,95019.00
2018-11-06T02:34:33.305Z,95021.00
2018-11-06T02:37:05.342Z,95012.00
2018-11-06T02:39:41.009Z,95010.00
2018-11-06T02:42:17.720Z,95006.00
2018-11-06T02:44:48.680Z,95010.00
2018-11-06T02:47:20.422Z,95016.00
2018-11-06T02:49:51.648Z,95014.00
2018-11-06T02:52:23.946Z,95010.00
2018-11-06T02:54:57.117Z,95020.00
2018-11-06T02:57:33.778Z,95022.00
2018-11-06T03:00:12.123Z,95019.00
2018-11-06T03:02:46.003Z,95022.00
2018-11-06T03:05:21.743Z,95023.00
2018-11-06T03:07:54.980Z,95016.00
2018-11-06T03:10:26.543Z,95030.00
2018-11-06T03:12:59.758Z,95024.00
2018-11-06T03:15:32.704Z,95028.00
2018-11-06T03:18:04.887Z,95030.00
2018-11-06T03:20:36.469Z,95032.00
2018-11-06T03:23:11.471Z,95039.00
2018-11-06T03:25:45.855Z,95032.00
2018-11-06T03:28:17.096Z,95039.00
2018-11-06T03:30:48.579Z,95045.00
2018-11-06T03:33:21.166Z,95050.00
2018-11-06T03:35:52.804Z,95046.00
2018-11-06T03:38:25.809Z,95046.00
2018-11-06T03:40:57.910Z,95052.00
2018-11-06T03:43:31.686Z,95046.00
2018-11-06T03:46:03.265Z,95047.00
2018-11-06T03:48:35.127Z,95045.00
2018-11-06T03:51:08.760Z,95047.00
2018-11-06T03:53:40.588Z,95045.00
2018-11-06T03:56:11.785Z,95041.00
2018-11-06T03:58:44.292Z,94900.00
2018-11-06T04:01:16.164Z,95034.00
2018-11-06T04:03:49.181Z,95044.00
2018-11-06T04:06:21.547Z,95035.00
2018-11-06T04:08:53.551Z,95031.00
2018-11-06T04:11:25.289Z,95035.00
2018-11-06T04:13:56.471Z,95042.00
2018-11-06T04:16:28.822Z,95045.00
2018-11-06T04:18:59.930Z,95038.00
2018-11-06T04:21:35.948Z,95036.00
2018-11-06T04:24:10.966Z,95033.00
2018-11-06T04:26:42.569Z,95041.00
2018-11-06T04:29:14.312Z,95039.00
2018-11-06T04:31:45.788Z,95048.00
2018-11-06T04:34:17.895Z,95041.00
2018-11-06T04:36:50.208Z,95043.00
2018-11-06T04:39:21.618Z,95038.00
2018-11-06T04:41:52.071Z,95035.00
2018-11-06T04:44:23.034Z,95026.00
2018-11-06T04:46:53.374Z,95025.00
2018-11-06T04:49:25.550Z,95020.00
2018-11-06T04:51:56.265Z,95018.00
2018-11-06T04:54:29.132Z,95014.00
2018-11-06T04:57:00.520Z,95016.00
2018-11-06T04:59:32.183Z,95003.00
2018-11-06T05:02:04.870Z,95010.00
2018-11-06T05:04:38.718Z,95011.00
2018-11-06T05:07:09.056Z,95012.00
2018-11-06T05:09:39.674Z,95001.00
2018-11-06T05:12:10.872Z,95014.00
2018-11-06T05:14:41.179Z,95014.00
2018-11-06T05:17:11.579Z,95011.00
2018-11-06T05:19:42.809Z,95011.00
2018-11-06T05:22:13.089Z,95020.00
2018-11-06T05:24:43.399Z,95017.00
2018-11-06T05:27:13.871Z,95018.00
2018-11-06T05:29:44.258Z,95016.00
2018-11-06T05:32:14.509Z,95016.00
2018-11-06T05:34:44.864Z,95022.00
2018-11-06T05:37:15.080Z,95008.00
2018-11-06T05:40:02.159Z,95019.00
2018-11-06T05:42:32.942Z,95014.00
2018-11-06T05:45:03.286Z,95006.00
2018-11-06T05:47:33.603Z,95018.00
2018-11-06T05:50:04.046Z,95014.00
2018-11-06T05:52:37.231Z,95024.00
2018-11-06T05:55:11.699Z,95024.00
2018-11-06T05:57:43.850Z,95029.00
2018-11-06T06:00:18.803Z,95033.00
2018-11-06T06:02:52.079Z,95049.00
2018-11-06T06:05:27.556Z,95035.00
2018-11-06T06:08:01.282Z,95030.00
2018-11-06T06:10:33.909Z,95034.00
2018-11-06T06:13:08.400Z,95040.00
2018-11-06T06:15:46.137Z,95030.00
2018-11-06T06:18:19.438Z,95031.00
2018-11-06T06:20:53.766Z,95031.00
2018-11-06T06:23:27.424Z,95043.00
2018-11-06T06:26:01.190Z,95041.00
2018-11-06T06:28:35.211Z,95039.00
2018-11-06T06:31:08.260Z,95032.00
2018-11-06T06:33:44.737Z,95037.00
2018-11-06T06:36:19.326Z,95032.00
2018-11-06T06:38:54.459Z,95041.00
2018-11-06T06:41:29.334Z,95053.00
2018-11-06T06:44:04.210Z,95043.00
2018-11-06T06:46:38.105Z,95049.00
2018-11-06T06:49:14.058Z,95046.00
2018-11-06T06:51:44.827Z,95046.00
2018-11-06T06:54:15.389Z,95043.00
2018-11-06T06:56:45.599Z,95033.00
2018-11-06T06:59:15.886Z,95038.00
2018-11-06T07:01:46.454Z,95039.00
2018-11-06T07:04:18.378Z,95024.00
2018-11-06T07:06:49.527Z,95034.00
2018-11-06T07:09:19.814Z,95037.00
2018-11-06T07:11:50.070Z,95022.00
2018-11-06T07:14:20.475Z,95023.00
2018-11-06T07:16:50.928Z,95020.00
2018-11-06T07:19:21.451Z,95025.00
2018-11-06T07:21:52.947Z,95023.00
2018-11-06T07:24:23.270Z,95022.00
2018-11-06T07:26:53.992Z,95033.00
2018-11-06T07:29:24.785Z,95024.00
2018-11-06T07:32:03.243Z,95024.00
2018-11-06T07:34:34.341Z,95029.00
2018-11-06T07:37:07.002Z,95029.00
2018-11-06T07:39:40.063Z,95023.00
2018-11-06T07:42:12.550Z,95029.00
2018-11-06T07:44:45.987Z,95015.00
2018-11-06T07:47:20.757Z,95032.00
2018-11-06T07:49:53.585Z,95016.00
2018-11-06T07:52:26.888Z,95030.00
2018-11-06T07:55:01.257Z,95021.00
2018-11-06T07:57:34.432Z,95011.00
2018-11-06T08:00:07.822Z,95011.00
2018-11-06T08:02:38.774Z,95008.00
2018-11-06T08:05:09.086Z,95008.00
2018-11-06T08:07:39.892Z,95012.00
2018-11-06T08:10:11.038Z,95008.00
2018-11-06T08:12:43.051Z,95008.00
2018-11-06T08:15:13.981Z,95007.00
2018-11-06T08:17:45.230Z,95001.00
2018-11-06T08:20:15.853Z,95000.00
2018-11-06T08:22:46.231Z,95002.00
2018-11-06T08:25:17.298Z,94900.00
2018-11-06T08:27:47.765Z,94999.00
2018-11-06T08:30:18.263Z,94998.00
2018-11-06T08:32:48.860Z,94999.00
2018-11-06T08:35:20.661Z,94997.00
2018-11-06T08:37:52.527Z,94993.00
2018-11-06T08:40:23.568Z,94991.00
2018-11-06T08:42:57.021Z,94990.00
2018-11-06T08:45:29.183Z,94992.00
2018-11-06T08:47:59.952Z,94982.00
2018-11-06T08:50:33.779Z,94990.00
2018-11-06T08:53:04.159Z,94988.00
2018-11-06T08:55:34.474Z,94988.00
2018-11-06T08:58:04.834Z,94980.00
2018-11-06T09:00:35.470Z,94990.00
2018-11-06T09:03:06.214Z,94976.00
2018-11-06T09:08:15.894Z,94988.00
2018-11-06T09:10:47.422Z,94984.00
2018-11-06T09:13:18.569Z,94982.00
2018-11-06T09:15:49.194Z,94985.00
2018-11-06T09:18:19.964Z,94982.00
2018-11-06T09:20:51.122Z,94988.00
2018-11-06T09:23:22.882Z,94981.00
2018-11-06T09:25:55.213Z,94986.00
2018-11-06T09:28:26.651Z,94985.00
2018-11-06T09:30:57.069Z,94982.00
2018-11-06T09:33:27.350Z,94927.00
2018-11-06T09:36:00.041Z,94991.00
2018-11-06T09:38:31.323Z,94978.00
2018-11-06T09:41:02.603Z,94977.00
2018-11-06T09:43:33.467Z,94983.00
2018-11-06T09:46:04.275Z,94982.00
2018-11-06T09:48:35.409Z,94977.00
2018-11-06T09:51:06.821Z,94982.00
2018-11-06T09:53:40.542Z,94980.00
2018-11-06T09:56:11.783Z,94981.00
2018-11-06T09:58:42.469Z,95003.00
2018-11-06T10:01:13.049Z,94976.00
2018-11-06T10:03:43.754Z,94987.00
2018-11-06T10:06:14.348Z,94976.00
2018-11-06T10:08:45.334Z,94975.00
2018-11-06T10:11:15.766Z,94981.00
2018-11-06T10:13:46.438Z,94975.00
2018-11-06T10:16:16.982Z,94968.00
2018-11-06T10:18:47.514Z,94960.00
2018-11-06T10:21:19.151Z,94960.00
2018-11-06T10:23:50.860Z,94962.00
2018-11-06T10:26:22.816Z,94959.00
2018-11-06T10:28:53.577Z,94962.00
2018-11-06T10:31:25.518Z,94962.00
2018-11-06T10:33:56.356Z,94966.00
2018-11-06T10:36:27.177Z,94954.00
2018-11-06T10:38:58.026Z,94954.00
2018-11-06T10:41:29.437Z,94956.00
2018-11-06T10:43:59.989Z,94949.00
2018-11-06T10:46:30.503Z,94952.00
2018-11-06T10:49:00.818Z,94946.00
2018-11-06T10:51:31.848Z,94949.00
2018-11-06T10:54:02.231Z,94941.00
2018-11-06T10:56:32.831Z,94938.00
2018-11-06T10:59:03.159Z,94939.00
2018-11-06T11:01:39.325Z,94932.00
2018-11-06T11:04:16.606Z,94937.00
2018-11-06T11:06:46.974Z,94935.00
2018-11-06T11:09:17.462Z,94933.00
2018-11-06T11:11:47.925Z,94928.00
2018-11-06T11:14:18.598Z,94929.00
2018-11-06T11:16:49.021Z,94916.00
2018-11-06T11:19:19.391Z,94925.00
2018-11-06T11:21:49.880Z,94917.00
2018-11-06T11:24:20.317Z,94921.00
2018-11-06T11:26:50.863Z,94905.00
2018-11-06T11:29:21.362Z,94896.00
2018-11-06T11:31:52.245Z,94901.00
2018-11-06T11:34:23.071Z,94890.00
2018-11-06T11:36:54.106Z,94889.00
2018-11-06T11:39:24.688Z,94884.00
2018-11-06T11:41:55.628Z,94884.00
2018-11-06T11:44:26.219Z,94885.00
2018-11-06T11:46:56.671Z,94889.00
2018-11-06T11:49:27.230Z,94880.00
2018-11-06T11:51:57.688Z,94876.00
2018-11-06T11:54:28.998Z,94872.00
2018-11-06T11:57:00.283Z,94862.00
2018-11-06T11:59:31.039Z,94856.00
2018-11-06T12:02:01.871Z,94861.00
2018-11-06T12:04:32.501Z,94852.00
2018-11-06T12:07:02.770Z,94862.00
2018-11-06T12:09:33.101Z,94862.00
2018-11-06T12:12:03.457Z,94862.00
2018-11-06T12:14:34.100Z,94855.00
2018-11-06T12:17:05.818Z,94851.00
2018-11-06T12:19:36.181Z,94849.00
2018-11-06T12:22:07.609Z,94852.00
2018-11-06T12:24:38.732Z,94839.00
2018-11-06T12:27:09.658Z,94841.00
2018-11-06T12:29:40.496Z,94839.00
2018-11-06T12:32:11.695Z,94845.00
2018-11-06T12:34:43.696Z,94851.00
2018-11-06T12:37:17.223Z,94853.00
2018-11-06T12:39:48.696Z,94848.00
2018-11-06T12:42:19.179Z,94844.00
2018-11-06T12:44:49.524Z,94842.00
2018-11-06T12:47:19.921Z,94843.00
2018-11-06T12:50:01.136Z,94835.00
2018-11-06T12:52:39.003Z,94833.00
2018-11-06T12:55:19.878Z,94827.00
2018-11-06T12:57:50.510Z,94824.00
2018-11-06T13:00:21.546Z,94823.00
2018-11-06T13:02:52.982Z,94819.00
2018-11-06T13:05:23.324Z,94810.00
2018-11-06T13:07:53.895Z,94820.00
2018-11-06T13:10:25.050Z,94820.00
2018-11-06T13:12:55.960Z,94821.00
2018-11-06T13:15:28.359Z,94819.00
2018-11-06T13:17:59.814Z,94818.00
2018-11-06T13:20:30.950Z,94822.00
2018-11-06T13:23:02.452Z,94816.00
2018-11-06T13:25:33.672Z,94824.00
2018-11-06T13:28:04.225Z,94829.00
2018-11-06T13:30:34.639Z,94832.00
2018-11-06T13:33:05.473Z,94828.00
2018-11-06T13:35:37.361Z,94821.00
2018-11-06T13:38:08.758Z,94823.00
2018-11-06T13:40:42.236Z,94830.00
2018-11-06T13:43:12.567Z,94824.00
2018-11-06T13:45:43.776Z,94826.00
2018-11-06T13:48:14.699Z,94829.00
2018-11-06T13:50:53.646Z,94829.00
2018-11-06T13:53:26.944Z,94822.00
2018-11-06T13:55:58.473Z,94832.00
2018-11-06T13:58:29.597Z,94932.00
2018-11-06T14:01:01.561Z,94826.00
2018-11-06T14:03:32.937Z,94822.00
2018-11-06T14:06:04.158Z,94826.00
2018-11-06T14:08:35.742Z,94824.00
2018-11-06T14:11:08.499Z,94827.00
2018-11-06T14:13:40.683Z,94831.00
2018-11-06T14:16:11.702Z,94829.00
2018-11-06T14:18:42.452Z,94830.00
2018-11-06T14:21:14.033Z,94841.00
2018-11-06T14:23:45.283Z,94842.00
2018-11-06T14:26:16.581Z,94839.00
2018-11-06T14:28:47.155Z,94837.00
2018-11-06T14:31:18.058Z,94842.00
2018-11-06T14:33:48.895Z,94847.00
2018-11-06T14:36:19.438Z,94843.00
2018-11-06T14:38:50.457Z,94844.00
2018-11-06T14:41:21.702Z,94840.00
2018-11-06T14:43:56.611Z,94842.00
2018-11-06T14:46:27.847Z,94842.00
2018-11-06T14:48:59.282Z,94844.00
2018-11-06T14:51:31.101Z,94840.00
2018-11-06T14:54:02.030Z,94840.00
2018-11-06T14:56:32.803Z,94848.00
2018-11-06T14:59:03.176Z,94841.00
2018-11-06T15:01:33.946Z,94838.00
2018-11-06T15:04:04.198Z,94790.00
2018-11-06T15:06:34.502Z,94844.00
2018-11-06T15:09:07.698Z,94850.00
2018-11-06T15:11:38.550Z,94847.00
2018-11-06T15:14:09.263Z,94846.00
2018-11-06T15:16:40.443Z,94840.00
2018-11-06T15:19:10.882Z,94844.00
2018-11-06T15:21:41.370Z,94848.00
2018-11-06T15:24:11.858Z,94853.00
2018-11-06T15:26:51.762Z,94857.00
2018-11-06T15:29:23.032Z,94863.00
2018-11-06T15:31:54.222Z,94867.00
2018-11-06T15:34:24.783Z,94871.00
2018-11-06T15:36:55.480Z,94871.00
2018-11-06T15:39:26.726Z,94877.00
2018-11-06T15:41:57.309Z,94872.00
2018-11-06T15:44:27.733Z,94881.00
2018-11-06T15:46:58.855Z,94875.00
2018-11-06T15:49:31.347Z,94881.00
2018-11-06T15:52:03.260Z,94874.00
2018-11-06T15:54:33.789Z,94876.00
2018-11-06T15:57:04.262Z,94866.00
2018-11-06T15:59:38.504Z,94871.00
2018-11-06T16:02:10.083Z,94878.00
2018-11-06T16:04:40.571Z,94888.00
2018-11-06T16:07:10.980Z,94886.00
2018-11-06T16:09:41.353Z,94886.00
2018-11-06T16:12:11.901Z,94891.00
2018-11-06T16:14:42.226Z,94892.00
2018-11-06T16:17:12.674Z,94893.00
2018-11-06T16:19:42.962Z,94899.00
2018-11-06T16:22:13.546Z,94907.00
2018-11-06T16:24:43.880Z,94908.00
2018-11-06T16:27:14.744Z,94913.00
2018-11-06T16:29:46.185Z,94913.00
2018-11-06T16:32:16.486Z,94912.00
2018-11-06T16:34:46.781Z,94918.00
2018-11-06T16:37:17.114Z,94916.00
2018-11-06T16:39:47.729Z,94920.00
2018-11-06T16:42:18.345Z,94923.00
2018-11-06T16:44:49.296Z,94928.00
2018-11-06T16:47:19.829Z,94924.00
2018-11-06T16:49:50.446Z,94924.00
2018-11-06T16:52:21.046Z,94926.00
2018-11-06T16:54:51.890Z,94919.00
2018-11-06T16:57:22.423Z,94924.00
2018-11-06T16:59:54.643Z,94923.00
2018-11-06T17:02:26.233Z,94926.00
2018-11-06T17:04:59.875Z,94922.00
2018-11-06T17:07:32.146Z,94928.00
2018-11-06T17:10:03.858Z,94933.00
2018-11-06T17:12:35.236Z,94927.00
2018-11-06T17:15:10.202Z,94935.00
2018-11-06T17:17:43.827Z,94936.00
2018-11-06T17:20:21.491Z,94931.00
2018-11-06T17:22:56.427Z,94942.00
2018-11-06T17:25:30.012Z,94936.00
2018-11-06T17:28:00.862Z,94942.00
2018-11-06T17:30:31.526Z,94948.00
2018-11-06T17:33:03.265Z,94953.00
2018-11-06T17:35:36.358Z,94939.00
2018-11-06T17:38:07.923Z,94960.00
2018-11-06T17:40:48.058Z,94952.00
2018-11-06T17:43:22.188Z,94951.00
2018-11-06T17:45:52.515Z,94951.00
2018-11-06T17:48:24.624Z,94950.00
2018-11-06T17:50:55.237Z,94947.00
2018-11-06T17:53:25.966Z,94955.00
2018-11-06T17:57:23.836Z,94956.00
2018-11-06T17:59:54.481Z,95002.00
2018-11-06T18:02:25.258Z,95019.00
2018-11-06T18:04:57.871Z,95037.00
2018-11-06T18:07:29.096Z,95039.00
2018-11-06T18:09:59.542Z,95057.00
2018-11-06T18:12:31.878Z,94978.00
2018-11-06T18:15:05.400Z,95044.00
2018-11-06T18:17:37.056Z,95042.00
2018-11-06T18:20:08.766Z,95042.00
2018-11-06T18:22:40.261Z,95049.00
2018-11-06T18:25:11.937Z,95061.00
2018-11-06T18:27:43.032Z,95059.00
2018-11-06T18:30:18.239Z,95064.00
2018-11-06T18:32:49.342Z,95066.00
2018-11-06T18:35:20.796Z,95062.00
2018-11-06T18:37:52.085Z,95066.00
2018-11-06T18:40:23.053Z,95066.00
2018-11-06T18:42:57.321Z,95070.00
2018-11-06T18:49:15.530Z,95074.00
2018-11-06T18:51:46.222Z,95068.00
2018-11-06T18:54:19.151Z,95076.00
2018-11-06T18:56:50.561Z,95073.00
2018-11-06T19:02:36.929Z,95064.00
2018-11-06T19:05:09.918Z,95061.00
2018-11-06T19:07:40.838Z,95071.00
2018-11-06T19:10:12.744Z,95069.00
2018-11-06T19:12:43.331Z,95073.00
2018-11-06T19:15:15.002Z,95065.00
2018-11-06T19:17:46.082Z,95076.00
2018-11-06T19:20:16.634Z,95086.00
2018-11-06T19:22:47.477Z,95078.00
2018-11-06T19:25:17.845Z,95072.00
2018-11-06T19:27:48.562Z,95086.00
2018-11-06T19:30:19.874Z,95080.00
2018-11-06T19:32:50.410Z,95084.00
2018-11-06T19:35:20.712Z,95082.00
2018-11-06T19:37:52.697Z,95094.00
2018-11-06T19:40:23.649Z,95083.00
2018-11-06T19:42:55.856Z,95097.00
2018-11-06T19:45:26.366Z,95097.00
2018-11-06T19:47:57.040Z,95101.00
2018-11-06T19:50:29.330Z,95101.00
2018-11-06T19:52:59.847Z,95095.00
2018-11-06T19:55:30.159Z,95095.00
2018-11-06T19:58:00.905Z,95096.00
2018-11-06T20:00:31.352Z,95097.00
2018-11-06T20:03:01.760Z,95093.00
2018-11-06T20:10:20.130Z,95107.00
2018-11-06T20:12:51.609Z,95100.00
2018-11-06T20:15:26.149Z,95103.00
2018-11-06T20:17:56.717Z,95098.00
2018-11-06T20:20:28.245Z,95103.00
2018-11-06T20:22:58.770Z,95112.00
2018-11-06T20:25:29.306Z,95115.00
2018-11-06T20:27:59.842Z,95115.00
2018-11-06T20:30:30.242Z,95118.00
2018-11-06T20:33:00.764Z,95130.00
2018-11-06T20:35:31.121Z,95121.00
2018-11-06T20:38:01.651Z,95118.00
2018-11-06T20:40:33.346Z,95123.00
2018-11-06T20:43:04.072Z,95122.00
2018-11-06T20:45:34.334Z,95124.00
2018-11-06T20:48:05.773Z,95131.00
2018-11-06T20:50:36.128Z,95133.00
2018-11-06T20:53:07.639Z,95134.00
2018-11-06T20:55:38.060Z,95135.00
2018-11-06T20:58:08.497Z,95142.00
2018-11-06T21:00:39.510Z,95136.00
2018-11-06T21:03:10.264Z,95148.00
2018-11-06T21:05:40.643Z,95162.00
2018-11-06T21:08:11.190Z,95145.00
2018-11-06T21:10:41.917Z,95143.00
2018-11-06T21:13:12.440Z,95130.00
2018-11-06T21:15:42.826Z,95137.00
2018-11-06T21:18:13.288Z,95147.00
2018-11-06T21:20:44.015Z,95140.00
2018-11-06T21:23:14.691Z,95152.00
2018-11-06T21:25:46.901Z,95145.00
2018-11-06T21:28:17.306Z,95149.00
2018-11-06T21:30:48.462Z,95147.00
2018-11-06T21:33:19.398Z,95152.00
2018-11-06T21:35:50.018Z,95151.00
2018-11-06T21:38:21.877Z,95159.00
2018-11-06T21:40:52.250Z,95156.00
2018-11-06T21:43:22.681Z,95164.00
2018-11-06T21:45:54.636Z,95162.00
2018-11-06T21:48:25.993Z,95162.00
2018-11-06T21:50:57.719Z,95169.00
2018-11-06T21:53:30.787Z,95169.00
2018-11-06T21:56:03.290Z,95170.00
2018-11-06T21:58:34.682Z,95173.00
2018-11-06T22:01:05.243Z,95172.00
2018-11-06T22:03:35.884Z,95192.00
2018-11-06T22:06:06.755Z,95184.00
2018-11-06T22:08:37.587Z,95188.00
2018-11-06T22:11:10.102Z,95181.00
2018-11-06T22:13:41.529Z,95182.00
2018-11-06T22:16:11.903Z,95191.00
2018-11-06T22:18:43.615Z,95194.00
2018-11-06T22:21:13.942Z,95196.00
2018-11-06T22:23:46.969Z,95205.00
2018-11-06T22:26:19.203Z,95210.00
2018-11-06T22:28:50.010Z,95205.00
2018-11-06T22:31:24.847Z,95205.00
2018-11-06T22:36:59.905Z,95213.00
2018-11-06T22:39:51.767Z,95217.00
2018-11-06T22:42:26.724Z,95212.00
2018-11-06T22:45:01.069Z,95208.00
2018-11-06T22:47:47.391Z,95210.00
2018-11-06T22:50:19.312Z,95212.00
2018-11-06T22:52:52.041Z,95220.00
2018-11-06T22:55:22.606Z,95222.00
2018-11-06T22:57:53.145Z,95217.00
2018-11-06T23:00:29.035Z,95213.00
2018-11-06T23:02:59.606Z,95211.00
2018-11-06T23:05:30.161Z,95204.00
2018-11-06T23:08:06.985Z,95212.00
2018-11-06T23:10:37.626Z,95213.00
2018-11-06T23:13:08.234Z,95213.00
2018-11-06T23:15:38.585Z,95218.00
2018-11-06T23:18:09.479Z,95217.00
2018-11-06T23:20:39.932Z,95225.00
2018-11-06T23:23:10.430Z,95216.00
2018-11-06T23:25:40.989Z,95226.00
2018-11-06T23:28:11.345Z,95221.00
2018-11-06T23:30:42.077Z,95223.00
2018-11-06T23:33:12.518Z,95230.00
2018-11-06T23:35:42.947Z,95234.00
2018-11-06T23:38:13.262Z,95229.00
2018-11-06T23:40:43.600Z,95235.00
2018-11-06T23:43:13.948Z,95226.00
2018-11-06T23:45:44.354Z,95236.00
2018-11-06T23:48:14.774Z,95238.00
2018-11-06T23:50:45.144Z,95251.00
2018-11-06T23:53:15.737Z,95256.00
2018-11-06T23:55:46.054Z,95248.00
2018-11-06T23:58:16.401Z,95254.00
